sensor_id;sensor_type;location;lat;lon;timestamp;pressure;altitude;pressure_sealevel;temperature;humidity
13836;BME280;6988;52.614;13.500;2024-03-17T00:03:09;54762.72;;;-143.77;68.90
13836;BME280;6988;52.614;13.500;2024-03-17T00:08:01;54770.94;;;-143.77;68.65
13836;BME280;6988;52.614;13.500;2024-03-17T00:12:55;54779.16;;;-143.77;69.64
13836;BME280;6988;52.614;13.500;2024-03-17T00:17:48;54785.31;;;-143.77;69.67
13836;BME280;6988;52.614;13.500;2024-03-17T00:22:41;54758.63;;;-143.77;69.65
13836;BME280;6988;52.614;13.500;2024-03-17T00:27:33;54803.78;;;-143.77;69.96
13836;BME280;6988;52.614;13.500;2024-03-17T00:32:27;54764.78;;;-143.77;69.63
13836;BME280;6988;52.614;13.500;2024-03-17T00:37:20;54789.41;;;-143.77;70.16
13836;BME280;6988;52.614;13.500;2024-03-17T00:42:14;54799.66;;;-143.77;70.74
13836;BME280;6988;52.614;13.500;2024-03-17T00:47:06;54783.25;;;-143.77;70.73
13836;BME280;6988;52.614;13.500;2024-03-17T00:51:58;54818.13;;;-143.77;70.73
13836;BME280;6988;52.614;13.500;2024-03-17T00:56:50;54754.53;;;-143.77;70.67
13836;BME280;6988;52.614;13.500;2024-03-17T01:01:44;54807.88;;;-143.77;71.02
13836;BME280;6988;52.614;13.500;2024-03-17T01:06:37;54783.25;;;-143.77;71.21
13836;BME280;6988;52.614;13.500;2024-03-17T01:11:31;54785.31;;;-143.77;70.98
13836;BME280;6988;52.614;13.500;2024-03-17T01:16:23;54783.25;;;-143.77;70.73
13836;BME280;6988;52.614;13.500;2024-03-17T01:21:17;54787.34;;;-143.77;70.62
13836;BME280;6988;52.614;13.500;2024-03-17T01:26:08;54814.03;;;-143.77;70.91
13836;BME280;6988;52.614;13.500;2024-03-17T01:31:05;54809.94;;;-143.77;71.07
13836;BME280;6988;52.614;13.500;2024-03-17T01:35:58;54799.66;;;-143.77;71.58
13836;BME280;6988;52.614;13.500;2024-03-17T01:40:51;54828.41;;;-143.77;71.46
13836;BME280;6988;52.614;13.500;2024-03-17T01:45:43;54775.03;;;-143.77;71.37
13836;BME280;6988;52.614;13.500;2024-03-17T01:50:37;54775.03;;;-143.77;71.76
13836;BME280;6988;52.614;13.500;2024-03-17T01:55:30;54818.13;;;-143.77;71.81
13836;BME280;6988;52.614;13.500;2024-03-17T02:00:24;54818.13;;;-143.77;71.64
13836;BME280;6988;52.614;13.500;2024-03-17T02:05:17;54797.63;;;-143.77;71.50
13836;BME280;6988;52.614;13.500;2024-03-17T02:10:09;54832.50;;;-143.77;71.58
13836;BME280;6988;52.614;13.500;2024-03-17T02:15:04;54826.34;;;-143.77;72.11
13836;BME280;6988;52.614;13.500;2024-03-17T02:19:58;54797.63;;;-143.77;72.16
13836;BME280;6988;52.614;13.500;2024-03-17T02:24:52;54795.56;;;-143.77;72.20
13836;BME280;6988;52.614;13.500;2024-03-17T02:29:44;54820.19;;;-143.77;72.33
13836;BME280;6988;52.614;13.500;2024-03-17T02:34:38;54809.94;;;-143.77;72.15
13836;BME280;6988;52.614;13.500;2024-03-17T02:39:31;54803.78;;;-143.77;71.79
13836;BME280;6988;52.614;13.500;2024-03-17T02:44:26;54801.72;;;-143.77;71.50
13836;BME280;6988;52.614;13.500;2024-03-17T02:49:18;54799.66;;;-143.77;71.69
13836;BME280;6988;52.614;13.500;2024-03-17T02:54:10;54807.88;;;-143.77;71.62
13836;BME280;6988;52.614;13.500;2024-03-17T02:59:01;54783.25;;;-143.77;72.36
13836;BME280;6988;52.614;13.500;2024-03-17T03:03:55;54768.88;;;-143.77;72.22
13836;BME280;6988;52.614;13.500;2024-03-17T03:08:47;54795.56;;;-143.77;72.16
13836;BME280;6988;52.614;13.500;2024-03-17T03:13:43;54791.47;;;-143.77;72.44
13836;BME280;6988;52.614;13.500;2024-03-17T03:18:35;54795.56;;;-143.77;73.03
13836;BME280;6988;52.614;13.500;2024-03-17T03:23:28;54768.88;;;-143.77;73.14
13836;BME280;6988;52.614;13.500;2024-03-17T03:28:20;54770.94;;;-143.77;73.14
13836;BME280;6988;52.614;13.500;2024-03-17T03:33:12;54770.94;;;-143.77;72.35
13836;BME280;6988;52.614;13.500;2024-03-17T03:38:04;54789.41;;;-143.77;72.51
13836;BME280;6988;52.614;13.500;2024-03-17T03:43:00;54791.47;;;-143.77;72.77
13836;BME280;6988;52.614;13.500;2024-03-17T03:47:51;54842.75;;;-143.77;72.92
13836;BME280;6988;52.614;13.500;2024-03-17T03:52:43;54799.66;;;-143.77;73.02
13836;BME280;6988;52.614;13.500;2024-03-17T03:57:36;54777.09;;;-143.77;73.15
13836;BME280;6988;52.614;13.500;2024-03-17T04:02:29;54826.34;;;-143.77;73.51
13836;BME280;6988;52.614;13.500;2024-03-17T04:07:25;54799.66;;;-143.77;73.74
13836;BME280;6988;52.614;13.500;2024-03-17T04:12:17;54840.72;;;-143.77;74.08
13836;BME280;6988;52.614;13.500;2024-03-17T04:22:27;54816.09;;;-143.77;74.55
13836;BME280;6988;52.614;13.500;2024-03-17T04:27:18;54840.72;;;-143.77;74.94
13836;BME280;6988;52.614;13.500;2024-03-17T04:32:10;54832.50;;;-143.77;74.96
13836;BME280;6988;52.614;13.500;2024-03-17T04:37:02;54848.91;;;-143.77;75.24
13836;BME280;6988;52.614;13.500;2024-03-17T04:41:55;54871.50;;;-143.77;75.67
13836;BME280;6988;52.614;13.500;2024-03-17T04:46:47;54879.69;;;-143.77;75.88
13836;BME280;6988;52.614;13.500;2024-03-17T04:51:39;54877.66;;;-143.77;76.07
13836;BME280;6988;52.614;13.500;2024-03-17T04:56:31;54885.84;;;-143.77;76.65
13836;BME280;6988;52.614;13.500;2024-03-17T05:01:28;54881.75;;;-143.77;77.00
13836;BME280;6988;52.614;13.500;2024-03-17T05:06:49;54816.09;;;-143.77;77.41
13836;BME280;6988;52.614;13.500;2024-03-17T05:11:44;54836.59;;;-143.77;77.71
13836;BME280;6988;52.614;13.500;2024-03-17T05:16:39;54840.72;;;-143.77;77.82
13836;BME280;6988;52.614;13.500;2024-03-17T05:21:31;54846.88;;;-143.77;77.99
13836;BME280;6988;52.614;13.500;2024-03-17T05:26:23;54859.19;;;-143.77;78.08
13836;BME280;6988;52.614;13.500;2024-03-17T05:31:15;54857.13;;;-143.77;78.07
13836;BME280;6988;52.614;13.500;2024-03-17T05:36:10;54826.34;;;-143.77;77.94
13836;BME280;6988;52.614;13.500;2024-03-17T05:41:03;54836.59;;;-143.77;77.74
13836;BME280;6988;52.614;13.500;2024-03-17T05:45:57;54842.75;;;-143.77;78.61
13836;BME280;6988;52.614;13.500;2024-03-17T05:50:53;54855.06;;;-143.77;78.88
13836;BME280;6988;52.614;13.500;2024-03-17T05:55:47;54867.38;;;-143.77;78.85
13836;BME280;6988;52.614;13.500;2024-03-17T06:00:41;54844.81;;;-143.77;78.72
13836;BME280;6988;52.614;13.500;2024-03-17T06:05:35;54816.09;;;-143.77;78.87
13836;BME280;6988;52.614;13.500;2024-03-17T06:10:27;54830.44;;;-143.77;78.39
13836;BME280;6988;52.614;13.500;2024-03-17T06:15:20;54846.88;;;-143.77;78.81
13836;BME280;6988;52.614;13.500;2024-03-17T06:20:16;54838.66;;;-143.77;78.42
13836;BME280;6988;52.614;13.500;2024-03-17T06:25:10;54844.81;;;-143.77;78.82
13836;BME280;6988;52.614;13.500;2024-03-17T06:30:04;54824.28;;;-143.77;78.87
13836;BME280;6988;52.614;13.500;2024-03-17T06:34:58;54820.19;;;-143.77;78.46
13836;BME280;6988;52.614;13.500;2024-03-17T06:39:51;54885.84;;;-143.77;78.39
13836;BME280;6988;52.614;13.500;2024-03-17T06:44:45;54912.53;;;-143.77;78.04
13836;BME280;6988;52.614;13.500;2024-03-17T06:49:37;54799.66;;;-143.77;77.09
13836;BME280;6988;52.614;13.500;2024-03-17T06:54:32;54793.50;;;-143.77;77.46
13836;BME280;6988;52.614;13.500;2024-03-17T06:59:32;54775.03;;;-143.77;76.56
13836;BME280;6988;52.614;13.500;2024-03-17T07:04:25;54760.69;;;-143.77;75.83
13836;BME280;6988;52.614;13.500;2024-03-17T07:09:21;54725.78;;;-143.77;74.51
13836;BME280;6988;52.614;13.500;2024-03-17T07:14:16;54803.78;;;-143.77;74.54
13836;BME280;6988;52.614;13.500;2024-03-17T07:19:10;54725.78;;;-143.77;73.01
13836;BME280;6988;52.614;13.500;2024-03-17T07:24:04;54742.22;;;-143.77;72.53
13836;BME280;6988;52.614;13.500;2024-03-17T07:28:56;54748.38;;;-143.77;72.12
13836;BME280;6988;52.614;13.500;2024-03-17T07:33:50;54734.00;;;-143.77;70.60
13836;BME280;6988;52.614;13.500;2024-03-17T07:38:41;54703.22;;;-143.77;69.88
13836;BME280;6988;52.614;13.500;2024-03-17T07:43:35;54717.59;;;-143.77;69.60
13836;BME280;6988;52.614;13.500;2024-03-17T07:48:28;54721.69;;;-143.77;68.73
13836;BME280;6988;52.614;13.500;2024-03-17T07:53:21;54709.38;;;-143.77;68.76
13836;BME280;6988;52.614;13.500;2024-03-17T07:58:14;54715.53;;;-143.77;68.92
13836;BME280;6988;52.614;13.500;2024-03-17T08:03:06;54664.22;;;-143.77;67.72
13836;BME280;6988;52.614;13.500;2024-03-17T08:07:58;54674.50;;;-143.77;67.89
13836;BME280;6988;52.614;13.500;2024-03-17T08:12:51;54676.53;;;-143.77;66.30
13836;BME280;6988;52.614;13.500;2024-03-17T08:17:43;54641.66;;;-143.77;66.09
13836;BME280;6988;52.614;13.500;2024-03-17T08:22:35;54647.81;;;-143.77;64.73
13836;BME280;6988;52.614;13.500;2024-03-17T08:27:27;54680.66;;;-143.77;62.87
13836;BME280;6988;52.614;13.500;2024-03-17T08:32:20;54627.28;;;-143.77;63.02
13836;BME280;6988;52.614;13.500;2024-03-17T08:37:12;54666.28;;;-143.77;62.68
13836;BME280;6988;52.614;13.500;2024-03-17T08:42:04;54530.84;;;-143.77;62.34
13836;BME280;6988;52.614;13.500;2024-03-17T08:46:56;54625.25;;;-143.77;61.24
13836;BME280;6988;52.614;13.500;2024-03-17T08:51:50;54502.13;;;-143.77;59.02
13836;BME280;6988;52.614;13.500;2024-03-17T08:56:42;54584.19;;;-143.77;57.02
13836;BME280;6988;52.614;13.500;2024-03-17T09:01:35;54578.03;;;-143.77;55.89
13836;BME280;6988;52.614;13.500;2024-03-17T09:06:26;54553.41;;;-143.77;57.23
13836;BME280;6988;52.614;13.500;2024-03-17T09:11:22;54555.47;;;-143.77;56.92
13836;BME280;6988;52.614;13.500;2024-03-17T09:16:16;54588.31;;;-143.77;56.35
13836;BME280;6988;52.614;13.500;2024-03-17T09:21:09;54557.53;;;-143.77;56.02
13836;BME280;6988;52.614;13.500;2024-03-17T09:26:03;54569.84;;;-143.77;55.84
13836;BME280;6988;52.614;13.500;2024-03-17T09:30:58;54506.22;;;-143.77;54.08
13836;BME280;6988;52.614;13.500;2024-03-17T09:35:54;54594.47;;;-143.77;55.43
13836;BME280;6988;52.614;13.500;2024-03-17T09:40:47;54520.59;;;-143.77;55.91
13836;BME280;6988;52.614;13.500;2024-03-17T09:45:42;54372.84;;;-143.77;55.49
13836;BME280;6988;52.614;13.500;2024-03-17T09:50:36;54528.78;;;-143.77;55.26
13836;BME280;6988;52.614;13.500;2024-03-17T09:55:30;54549.31;;;-143.77;53.45
13836;BME280;6988;52.614;13.500;2024-03-17T10:00:22;54565.72;;;-143.77;53.32
13836;BME280;6988;52.614;13.500;2024-03-17T10:05:19;54438.50;;;-143.77;54.46
13836;BME280;6988;52.614;13.500;2024-03-17T10:10:17;54524.69;;;-143.77;55.16
13836;BME280;6988;52.614;13.500;2024-03-17T10:15:11;54376.97;;;-143.77;57.26
13836;BME280;6988;52.614;13.500;2024-03-17T10:20:15;54354.38;;;-143.77;51.85
13836;BME280;6988;52.614;13.500;2024-03-17T10:25:09;54315.41;;;-143.77;48.15
13836;BME280;6988;52.614;13.500;2024-03-17T10:30:04;54405.69;;;-143.77;46.33
13836;BME280;6988;52.614;13.500;2024-03-17T10:34:56;54397.47;;;-143.77;46.03
13836;BME280;6988;52.614;13.500;2024-03-17T10:39:51;54360.53;;;-143.77;46.37
13836;BME280;6988;52.614;13.500;2024-03-17T10:44:45;54350.28;;;-143.77;43.85
13836;BME280;6988;52.614;13.500;2024-03-17T10:49:39;54422.09;;;-143.77;44.15
13836;BME280;6988;52.614;13.500;2024-03-17T10:54:32;54463.13;;;-143.77;45.15
13836;BME280;6988;52.614;13.500;2024-03-17T10:59:39;54475.44;;;-143.77;46.71
13836;BME280;6988;52.614;13.500;2024-03-17T11:04:31;54481.59;;;-143.77;47.48
13836;BME280;6988;52.614;13.500;2024-03-17T11:09:24;54329.75;;;-143.77;50.00
13836;BME280;6988;52.614;13.500;2024-03-17T11:14:17;54286.69;;;-143.77;47.72
13836;BME280;6988;52.614;13.500;2024-03-17T11:19:15;54413.88;;;-143.77;47.08
13836;BME280;6988;52.614;13.500;2024-03-17T11:24:19;54411.84;;;-143.77;45.39
13836;BME280;6988;52.614;13.500;2024-03-17T11:29:27;54274.38;;;-143.77;45.54
13836;BME280;6988;52.614;13.500;2024-03-17T11:34:34;54266.16;;;-143.77;46.07
13836;BME280;6988;52.614;13.500;2024-03-17T11:39:47;54298.97;;;-143.77;42.57
13836;BME280;6988;52.614;13.500;2024-03-17T11:44:43;54319.50;;;-143.77;44.24
13836;BME280;6988;52.614;13.500;2024-03-17T11:49:37;54409.78;;;-143.77;43.79
13836;BME280;6988;52.614;13.500;2024-03-17T11:54:34;54403.63;;;-143.77;43.54
13836;BME280;6988;52.614;13.500;2024-03-17T11:59:27;54389.28;;;-143.77;44.68
13836;BME280;6988;52.614;13.500;2024-03-17T12:04:23;54393.38;;;-143.77;43.75
13836;BME280;6988;52.614;13.500;2024-03-17T12:09:20;54463.13;;;-143.77;44.09
13836;BME280;6988;52.614;13.500;2024-03-17T12:14:18;54469.28;;;-143.77;44.12
13836;BME280;6988;52.614;13.500;2024-03-17T12:19:11;54444.66;;;-143.77;44.86
13836;BME280;6988;52.614;13.500;2024-03-17T12:24:16;54436.47;;;-143.77;45.74
13836;BME280;6988;52.614;13.500;2024-03-17T12:29:23;54459.03;;;-143.77;45.18
13836;BME280;6988;52.614;13.500;2024-03-17T12:34:17;54424.16;;;-143.77;43.78
13836;BME280;6988;52.614;13.500;2024-03-17T12:39:19;54399.53;;;-143.77;44.79
13836;BME280;6988;52.614;13.500;2024-03-17T12:44:21;54452.88;;;-143.77;45.29
13836;BME280;6988;52.614;13.500;2024-03-17T12:49:14;54483.66;;;-143.77;45.51
13836;BME280;6988;52.614;13.500;2024-03-17T12:54:17;54471.34;;;-143.77;45.50
13836;BME280;6988;52.614;13.500;2024-03-17T12:59:10;54483.66;;;-143.77;46.25
13836;BME280;6988;52.614;13.500;2024-03-17T13:04:19;54500.06;;;-143.77;45.56
13836;BME280;6988;52.614;13.500;2024-03-17T13:09:11;54467.25;;;-143.77;46.28
13836;BME280;6988;52.614;13.500;2024-03-17T13:14:04;54450.81;;;-143.77;45.85
13836;BME280;6988;52.614;13.500;2024-03-17T13:18:56;54446.72;;;-143.77;44.63
13836;BME280;6988;52.614;13.500;2024-03-17T13:23:48;54430.31;;;-143.77;44.52
13836;BME280;6988;52.614;13.500;2024-03-17T13:28:40;54434.41;;;-143.77;45.50
13836;BME280;6988;52.614;13.500;2024-03-17T13:33:33;54413.88;;;-143.77;42.88
13836;BME280;6988;52.614;13.500;2024-03-17T13:38:25;54426.19;;;-143.77;43.36
13836;BME280;6988;52.614;13.500;2024-03-17T13:43:16;54407.72;;;-143.77;43.55
13836;BME280;6988;52.614;13.500;2024-03-17T13:48:09;54366.69;;;-143.77;43.56
13836;BME280;6988;52.614;13.500;2024-03-17T13:53:03;54358.50;;;-143.77;43.32
13836;BME280;6988;52.614;13.500;2024-03-17T13:57:57;54358.50;;;-143.77;42.19
13836;BME280;6988;52.614;13.500;2024-03-17T14:02:52;54307.19;;;-143.77;41.80
13836;BME280;6988;52.614;13.500;2024-03-17T14:07:45;54352.34;;;-143.77;41.42
13836;BME280;6988;52.614;13.500;2024-03-17T14:12:39;54329.75;;;-143.77;42.10
13836;BME280;6988;52.614;13.500;2024-03-17T14:17:32;54337.97;;;-143.77;41.73
13836;BME280;6988;52.614;13.500;2024-03-17T14:22:24;54301.03;;;-143.77;42.18
13836;BME280;6988;52.614;13.500;2024-03-17T14:27:16;54346.19;;;-143.77;41.09
13836;BME280;6988;52.614;13.500;2024-03-17T14:32:09;54272.31;;;-143.77;41.52
13836;BME280;6988;52.614;13.500;2024-03-17T14:37:01;54335.91;;;-143.77;40.95
13836;BME280;6988;52.614;13.500;2024-03-17T14:41:54;54284.63;;;-143.77;39.51
13836;BME280;6988;52.614;13.500;2024-03-17T14:46:46;54366.69;;;-143.77;41.38
13836;BME280;6988;52.614;13.500;2024-03-17T14:51:41;54344.13;;;-143.77;42.14
13836;BME280;6988;52.614;13.500;2024-03-17T14:56:33;54241.53;;;-143.77;41.68
13836;BME280;6988;52.614;13.500;2024-03-17T15:01:25;54270.25;;;-143.77;41.47
13836;BME280;6988;52.614;13.500;2024-03-17T15:06:20;54268.22;;;-143.77;41.70
13836;BME280;6988;52.614;13.500;2024-03-17T15:11:13;54266.16;;;-143.77;40.49
13836;BME280;6988;52.614;13.500;2024-03-17T15:16:06;54253.84;;;-143.77;40.13
13836;BME280;6988;52.614;13.500;2024-03-17T15:20:59;54358.50;;;-143.77;40.02
13836;BME280;6988;52.614;13.500;2024-03-17T15:25:52;54323.59;;;-143.77;41.03
13836;BME280;6988;52.614;13.500;2024-03-17T15:30:45;54354.38;;;-143.77;40.43
13836;BME280;6988;52.614;13.500;2024-03-17T15:35:37;54381.06;;;-143.77;41.19
13836;BME280;6988;52.614;13.500;2024-03-17T15:40:33;54397.47;;;-143.77;41.40
13836;BME280;6988;52.614;13.500;2024-03-17T15:45:26;54438.50;;;-143.77;42.39
13836;BME280;6988;52.614;13.500;2024-03-17T15:50:19;54452.88;;;-143.77;42.57
13836;BME280;6988;52.614;13.500;2024-03-17T15:55:13;54508.28;;;-143.77;43.08
13836;BME280;6988;52.614;13.500;2024-03-17T16:00:06;54518.53;;;-143.77;43.17
13836;BME280;6988;52.614;13.500;2024-03-17T16:05:07;54495.97;;;-143.77;44.16
13836;BME280;6988;52.614;13.500;2024-03-17T16:10:04;54491.88;;;-143.77;44.91
13836;BME280;6988;52.614;13.500;2024-03-17T16:15:00;54498.03;;;-143.77;44.68
13836;BME280;6988;52.614;13.500;2024-03-17T16:19:51;54508.28;;;-143.77;43.87
13836;BME280;6988;52.614;13.500;2024-03-17T16:24:44;54590.34;;;-143.77;45.36
13836;BME280;6988;52.614;13.500;2024-03-17T16:29:40;54580.09;;;-143.77;45.62
13836;BME280;6988;52.614;13.500;2024-03-17T16:34:35;54561.63;;;-143.77;45.86
13836;BME280;6988;52.614;13.500;2024-03-17T16:39:28;54598.56;;;-143.77;46.51
13836;BME280;6988;52.614;13.500;2024-03-17T16:44:30;54561.63;;;-143.77;46.25
13836;BME280;6988;52.614;13.500;2024-03-17T16:49:26;54584.19;;;-143.77;47.36
13836;BME280;6988;52.614;13.500;2024-03-17T16:54:19;54586.25;;;-143.77;47.55
13836;BME280;6988;52.614;13.500;2024-03-17T16:59:12;54614.97;;;-143.77;49.03
13836;BME280;6988;52.614;13.500;2024-03-17T17:04:04;54619.09;;;-143.77;49.96
13836;BME280;6988;52.614;13.500;2024-03-17T17:08:58;54619.09;;;-143.77;50.67
13836;BME280;6988;52.614;13.500;2024-03-17T17:13:51;54639.59;;;-143.77;50.50
13836;BME280;6988;52.614;13.500;2024-03-17T17:18:51;54635.50;;;-143.77;51.71
13836;BME280;6988;52.614;13.500;2024-03-17T17:23:45;54633.44;;;-143.77;52.27
13836;BME280;6988;52.614;13.500;2024-03-17T17:28:40;54664.22;;;-143.77;52.60
13836;BME280;6988;52.614;13.500;2024-03-17T17:33:31;54623.19;;;-143.77;52.91
13836;BME280;6988;52.614;13.500;2024-03-17T17:38:26;54656.03;;;-143.77;53.31
13836;BME280;6988;52.614;13.500;2024-03-17T17:43:18;54664.22;;;-143.77;54.00
13836;BME280;6988;52.614;13.500;2024-03-17T17:48:12;54717.59;;;-143.77;54.89
13836;BME280;6988;52.614;13.500;2024-03-17T17:53:04;54676.53;;;-143.77;54.98
13836;BME280;6988;52.614;13.500;2024-03-17T17:57:56;54656.03;;;-143.77;55.57
13836;BME280;6988;52.614;13.500;2024-03-17T18:02:48;54676.53;;;-143.77;55.69
13836;BME280;6988;52.614;13.500;2024-03-17T18:07:42;54668.34;;;-143.77;55.82
13836;BME280;6988;52.614;13.500;2024-03-17T18:12:34;54692.97;;;-143.77;56.06
13836;BME280;6988;52.614;13.500;2024-03-17T18:17:26;54709.38;;;-143.77;56.53
13836;BME280;6988;52.614;13.500;2024-03-17T18:22:18;54731.94;;;-143.77;57.86
13836;BME280;6988;52.614;13.500;2024-03-17T18:27:11;54713.47;;;-143.77;58.61
13836;BME280;6988;52.614;13.500;2024-03-17T18:32:04;54707.31;;;-143.77;58.86
13836;BME280;6988;52.614;13.500;2024-03-17T18:36:56;54713.47;;;-143.77;59.16
13836;BME280;6988;52.614;13.500;2024-03-17T18:41:48;54709.38;;;-143.77;59.16
13836;BME280;6988;52.614;13.500;2024-03-17T18:46:42;54742.22;;;-143.77;59.89
13836;BME280;6988;52.614;13.500;2024-03-17T18:51:34;54729.91;;;-143.77;60.14
13836;BME280;6988;52.614;13.500;2024-03-17T18:56:25;54736.06;;;-143.77;60.45
13836;BME280;6988;52.614;13.500;2024-03-17T19:01:17;54740.16;;;-143.77;61.59
13836;BME280;6988;52.614;13.500;2024-03-17T19:06:12;54779.16;;;-143.77;62.46
13836;BME280;6988;52.614;13.500;2024-03-17T19:11:04;54777.09;;;-143.77;63.13
13836;BME280;6988;52.614;13.500;2024-03-17T19:15:59;54785.31;;;-143.77;63.57
13836;BME280;6988;52.614;13.500;2024-03-17T19:21:04;54799.66;;;-143.77;64.14
13836;BME280;6988;52.614;13.500;2024-03-17T19:26:03;54799.66;;;-143.77;64.28
13836;BME280;6988;52.614;13.500;2024-03-17T19:30:56;54766.84;;;-143.77;64.49
13836;BME280;6988;52.614;13.500;2024-03-17T19:35:51;54785.31;;;-143.77;64.71
13836;BME280;6988;52.614;13.500;2024-03-17T19:40:52;54809.94;;;-143.77;64.67
13836;BME280;6988;52.614;13.500;2024-03-17T19:45:46;54791.47;;;-143.77;65.11
13836;BME280;6988;52.614;13.500;2024-03-17T19:50:38;54791.47;;;-143.77;65.32
13836;BME280;6988;52.614;13.500;2024-03-17T19:55:30;54803.78;;;-143.77;65.86
13836;BME280;6988;52.614;13.500;2024-03-17T20:00:22;54783.25;;;-143.77;66.03
13836;BME280;6988;52.614;13.500;2024-03-17T20:05:15;54799.66;;;-143.77;67.10
13836;BME280;6988;52.614;13.500;2024-03-17T20:10:08;54824.28;;;-143.77;67.10
13836;BME280;6988;52.614;13.500;2024-03-17T20:15:02;54787.34;;;-143.77;67.45
13836;BME280;6988;52.614;13.500;2024-03-17T20:19:55;54809.94;;;-143.77;67.67
13836;BME280;6988;52.614;13.500;2024-03-17T20:24:49;54807.88;;;-143.77;68.47
13836;BME280;6988;52.614;13.500;2024-03-17T20:29:41;54818.13;;;-143.77;68.61
13836;BME280;6988;52.614;13.500;2024-03-17T20:34:32;54828.41;;;-143.77;69.58
13836;BME280;6988;52.614;13.500;2024-03-17T20:39:25;54822.25;;;-143.77;70.93
13836;BME280;6988;52.614;13.500;2024-03-17T20:44:23;54797.63;;;-143.77;71.11
13836;BME280;6988;52.614;13.500;2024-03-17T20:49:15;54850.97;;;-143.77;71.88
13836;BME280;6988;52.614;13.500;2024-03-17T20:54:07;54850.97;;;-143.77;73.18
13836;BME280;6988;52.614;13.500;2024-03-17T20:59:00;54842.75;;;-143.77;73.96
13836;BME280;6988;52.614;13.500;2024-03-17T21:03:53;54840.72;;;-143.77;74.33
13836;BME280;6988;52.614;13.500;2024-03-17T21:08:45;54877.66;;;-143.77;74.41
13836;BME280;6988;52.614;13.500;2024-03-17T21:13:38;54853.03;;;-143.77;73.70
13836;BME280;6988;52.614;13.500;2024-03-17T21:18:30;54857.13;;;-143.77;73.39
13836;BME280;6988;52.614;13.500;2024-03-17T21:23:24;54846.88;;;-143.77;72.90
13836;BME280;6988;52.614;13.500;2024-03-17T21:28:16;54871.50;;;-143.77;72.99
13836;BME280;6988;52.614;13.500;2024-03-17T21:33:08;54863.28;;;-143.77;72.52
13836;BME280;6988;52.614;13.500;2024-03-17T21:38:00;54816.09;;;-143.77;72.69
13836;BME280;6988;52.614;13.500;2024-03-17T21:42:56;54853.03;;;-143.77;72.80
13836;BME280;6988;52.614;13.500;2024-03-17T21:47:48;54848.91;;;-143.77;72.38
13836;BME280;6988;52.614;13.500;2024-03-17T21:52:41;54838.66;;;-143.77;72.18
13836;BME280;6988;52.614;13.500;2024-03-17T21:57:33;54865.34;;;-143.77;72.51
13836;BME280;6988;52.614;13.500;2024-03-17T22:02:28;54859.19;;;-143.77;72.00
13836;BME280;6988;52.614;13.500;2024-03-17T22:07:20;54865.34;;;-143.77;72.35
13836;BME280;6988;52.614;13.500;2024-03-17T22:12:12;54877.66;;;-143.77;71.94
13836;BME280;6988;52.614;13.500;2024-03-17T22:17:05;54889.97;;;-143.77;72.80
13836;BME280;6988;52.614;13.500;2024-03-17T22:21:59;54894.06;;;-143.77;73.27
13836;BME280;6988;52.614;13.500;2024-03-17T22:26:50;54881.75;;;-143.77;74.33
13836;BME280;6988;52.614;13.500;2024-03-17T22:36:42;54850.97;;;-143.77;75.29
13836;BME280;6988;52.614;13.500;2024-03-17T22:41:36;54889.97;;;-143.77;76.08
13836;BME280;6988;52.614;13.500;2024-03-17T23:04:45;54931.00;;;-143.77;76.76
13836;BME280;6988;52.614;13.500;2024-03-17T23:09:37;54877.66;;;-143.77;77.53
13836;BME280;6988;52.614;13.500;2024-03-17T23:14:30;54902.28;;;-143.77;77.68
13836;BME280;6988;52.614;13.500;2024-03-17T23:19:22;54853.03;;;-143.77;77.79
13836;BME280;6988;52.614;13.500;2024-03-17T23:24:15;54908.44;;;-143.77;77.59
13836;BME280;6988;52.614;13.500;2024-03-17T23:29:07;54924.84;;;-143.77;78.19
13836;BME280;6988;52.614;13.500;2024-03-17T23:33:59;54889.97;;;-143.77;78.22
13836;BME280;6988;52.614;13.500;2024-03-17T23:38:53;54910.47;;;-143.77;77.99
13836;BME280;6988;52.614;13.500;2024-03-17T23:43:47;54935.09;;;-143.77;77.16
13836;BME280;6988;52.614;13.500;2024-03-17T23:48:39;54902.28;;;-143.77;77.34
13836;BME280;6988;52.614;13.500;2024-03-17T23:53:31;54902.28;;;-143.77;78.12
13836;BME280;6988;52.614;13.500;2024-03-17T23:58:23;54910.47;;;-143.77;77.86
